createdAt,value
2023-05-01T00:01:56.597Z,14.40
2023-05-01T00:04:24.966Z,14.40
2023-05-01T00:06:53.267Z,14.40
2023-05-01T00:09:21.345Z,14.40
2023-05-01T00:11:49.167Z,14.40
2023-05-01T00:14:16.681Z,14.40
2023-05-01T00:16:44.531Z,14.40
2023-05-01T00:19:12.956Z,14.40
2023-05-01T00:21:40.491Z,14.40
2023-05-01T00:24:08.145Z,14.40
2023-05-01T00:26:38.172Z,14.40
2023-05-01T00:29:05.732Z,14.40
2023-05-01T00:31:33.981Z,14.30
2023-05-01T00:34:01.387Z,14.30
2023-05-01T00:36:28.536Z,14.30
2023-05-01T00:38:56.024Z,14.30
2023-05-01T00:41:22.824Z,14.30
2023-05-01T00:43:50.636Z,14.20
2023-05-01T00:46:20.639Z,14.20
2023-05-01T00:48:48.688Z,14.20
2023-05-01T00:51:16.314Z,14.20
2023-05-01T00:53:44.709Z,14.20
2023-05-01T00:56:11.704Z,14.20
2023-05-01T00:58:42.540Z,14.20
2023-05-01T01:01:10.499Z,14.20
2023-05-01T01:03:38.041Z,14.10
2023-05-01T01:06:16.355Z,14.20
2023-05-01T01:09:19.458Z,14.20
2023-05-01T01:12:01.744Z,14.20
2023-05-01T01:14:39.388Z,14.10
2023-05-01T01:17:21.853Z,14.10
2023-05-01T01:20:11.347Z,14.10
2023-05-01T01:22:42.374Z,14.00
2023-05-01T01:25:50.339Z,14.00
2023-05-01T01:28:52.470Z,14.00
2023-05-01T01:31:30.625Z,14.00
2023-05-01T01:34:18.669Z,14.00
2023-05-01T01:37:12.248Z,14.00
2023-05-01T01:39:50.031Z,14.00
2023-05-01T01:42:22.794Z,14.00
2023-05-01T01:44:56.177Z,14.00
2023-05-01T01:47:33.805Z,14.00
2023-05-01T01:50:05.850Z,13.90
2023-05-01T01:52:38.104Z,13.90
2023-05-01T01:55:12.137Z,13.90
2023-05-01T01:57:44.441Z,13.90
2023-05-01T02:00:13.524Z,13.90
2023-05-01T02:02:43.219Z,13.90
2023-05-01T02:05:15.077Z,13.90
2023-05-01T02:07:45.970Z,13.90
2023-05-01T02:10:15.121Z,13.90
2023-05-01T02:12:45.191Z,13.90
2023-05-01T02:15:13.312Z,13.90
2023-05-01T02:17:42.498Z,13.90
2023-05-01T02:20:13.553Z,13.90
2023-05-01T02:22:41.262Z,13.90
2023-05-01T02:25:13.489Z,14.00
2023-05-01T02:28:19.665Z,14.00
2023-05-01T02:30:49.340Z,14.00
2023-05-01T02:33:17.186Z,13.90
2023-05-01T02:35:47.694Z,13.90
2023-05-01T02:38:16.820Z,13.90
2023-05-01T02:40:51.172Z,14.00
2023-05-01T02:43:21.538Z,13.90
2023-05-01T02:45:51.612Z,14.00
2023-05-01T02:48:24.306Z,14.00
2023-05-01T02:50:54.462Z,13.90
2023-05-01T02:53:23.139Z,13.90
2023-05-01T02:55:51.759Z,13.90
2023-05-01T02:58:21.188Z,13.90
2023-05-01T03:00:51.789Z,13.90
2023-05-01T03:03:20.193Z,13.90
2023-05-01T03:05:48.326Z,13.90
2023-05-01T03:08:15.473Z,13.80
2023-05-01T03:10:43.677Z,13.80
2023-05-01T03:13:13.624Z,13.70
2023-05-01T03:15:42.015Z,13.70
2023-05-01T03:18:09.901Z,13.70
2023-05-01T03:20:36.893Z,13.70
2023-05-01T03:23:04.085Z,13.60
2023-05-01T03:25:34.014Z,13.70
2023-05-01T03:28:01.437Z,13.60
2023-05-01T03:30:29.265Z,13.50
2023-05-01T03:32:56.356Z,13.50
2023-05-01T03:35:23.216Z,13.40
2023-05-01T03:37:51.010Z,13.40
2023-05-01T03:40:19.681Z,13.40
2023-05-01T03:42:47.282Z,13.40
2023-05-01T03:45:15.623Z,13.40
2023-05-01T03:47:43.711Z,13.30
2023-05-01T03:50:12.330Z,13.30
2023-05-01T03:52:39.182Z,13.20
2023-05-01T03:55:08.121Z,13.20
2023-05-01T03:57:37.847Z,13.20
2023-05-01T04:00:07.231Z,13.20
2023-05-01T04:02:35.096Z,13.10
2023-05-01T04:05:03.076Z,13.10
2023-05-01T04:07:30.375Z,13.10
2023-05-01T04:09:58.681Z,13.10
2023-05-01T04:12:28.547Z,13.00
2023-05-01T04:14:56.613Z,13.00
2023-05-01T04:17:24.950Z,12.90
2023-05-01T04:19:52.456Z,12.90
2023-05-01T04:22:20.135Z,13.00
2023-05-01T04:24:47.875Z,12.90
2023-05-01T04:27:15.972Z,12.90
2023-05-01T04:29:43.534Z,12.90
2023-05-01T04:32:11.437Z,12.90
2023-05-01T04:34:39.330Z,12.90
2023-05-01T04:37:09.356Z,12.80
2023-05-01T04:39:36.500Z,12.80
2023-05-01T04:42:05.454Z,12.80
2023-05-01T04:44:34.794Z,12.80
2023-05-01T04:47:03.322Z,12.80
2023-05-01T04:49:31.157Z,12.80
2023-05-01T04:52:01.132Z,12.80
2023-05-01T04:54:28.808Z,12.80
2023-05-01T04:56:55.531Z,12.80
2023-05-01T04:59:23.158Z,12.90
2023-05-01T05:01:50.833Z,12.90
2023-05-01T05:04:19.047Z,12.90
2023-05-01T05:06:46.592Z,12.90
2023-05-01T05:09:15.984Z,12.90
2023-05-01T05:11:44.606Z,12.90
2023-05-01T05:14:11.851Z,12.90
2023-05-01T05:16:38.531Z,13.00
2023-05-01T05:19:06.084Z,13.00
2023-05-01T05:21:33.383Z,13.00
2023-05-01T05:24:01.589Z,13.00
2023-05-01T05:26:29.425Z,13.00
2023-05-01T05:28:57.277Z,13.10
2023-05-01T05:31:24.689Z,13.10
2023-05-01T05:33:52.285Z,13.10
2023-05-01T05:36:20.110Z,13.10
2023-05-01T05:38:47.759Z,13.20
2023-05-01T05:41:16.299Z,13.20
2023-05-01T05:43:43.706Z,13.20
2023-05-01T05:46:11.991Z,13.20
2023-05-01T05:48:39.549Z,13.30
2023-05-01T05:51:07.590Z,13.30
2023-05-01T05:53:38.483Z,13.40
2023-05-01T05:56:07.846Z,13.40
2023-05-01T05:58:35.488Z,13.40
2023-05-01T06:01:03.398Z,13.40
2023-05-01T06:03:31.614Z,13.50
2023-05-01T06:05:59.579Z,13.60
2023-05-01T06:08:27.997Z,13.70
2023-05-01T06:10:54.944Z,13.70
2023-05-01T06:13:23.039Z,13.70
2023-05-01T06:15:50.691Z,13.70
2023-05-01T06:18:18.330Z,13.70
2023-05-01T06:20:47.506Z,13.80
2023-05-01T06:23:18.377Z,13.90
2023-05-01T06:25:45.834Z,13.80
2023-05-01T06:28:13.441Z,13.90
2023-05-01T06:30:40.882Z,14.00
2023-05-01T06:33:08.098Z,14.10
2023-05-01T06:35:35.513Z,14.10
2023-05-01T06:38:03.850Z,14.10
2023-05-01T06:40:31.727Z,14.10
2023-05-01T06:42:59.214Z,14.10
2023-05-01T06:45:26.645Z,14.20
2023-05-01T06:47:54.628Z,14.30
2023-05-01T06:50:21.513Z,14.30
2023-05-01T06:52:49.797Z,14.30
2023-05-01T06:55:20.230Z,14.30
2023-05-01T06:57:47.107Z,14.40
2023-05-01T07:00:15.525Z,14.40
2023-05-01T07:02:42.951Z,14.50
2023-05-01T07:05:09.993Z,14.50
2023-05-01T07:07:42.059Z,14.50
2023-05-01T07:10:15.140Z,14.60
2023-05-01T07:12:43.305Z,14.60
2023-05-01T07:15:11.344Z,14.70
2023-05-01T07:17:39.526Z,14.70
2023-05-01T07:20:08.014Z,14.70
2023-05-01T07:22:34.854Z,14.80
2023-05-01T07:25:03.904Z,14.80
2023-05-01T07:27:32.236Z,14.80
2023-05-01T07:30:01.822Z,14.90
2023-05-01T07:32:29.690Z,15.00
2023-05-01T07:34:57.449Z,15.10
2023-05-01T07:37:24.451Z,15.20
2023-05-01T07:39:51.857Z,15.20
2023-05-01T07:42:19.356Z,15.20
2023-05-01T07:44:47.401Z,15.30
2023-05-01T07:47:15.161Z,15.40
2023-05-01T07:49:42.434Z,15.50
2023-05-01T07:52:10.333Z,15.50
2023-05-01T07:54:37.610Z,15.50
2023-05-01T07:57:06.930Z,15.60
2023-05-01T07:59:34.511Z,15.70
2023-05-01T08:02:02.168Z,15.70
2023-05-01T08:04:29.903Z,15.80
2023-05-01T08:07:00.284Z,15.90
2023-05-01T08:09:27.898Z,15.90
2023-05-01T08:11:55.500Z,16.00
2023-05-01T08:14:22.820Z,16.10
2023-05-01T08:16:55.798Z,16.10
2023-05-01T08:19:23.703Z,16.20
2023-05-01T08:21:50.650Z,16.30
2023-05-01T08:24:17.857Z,16.20
2023-05-01T08:26:45.046Z,16.20
2023-05-01T08:29:12.092Z,16.40
2023-05-01T08:31:40.238Z,16.50
2023-05-01T08:34:07.935Z,16.60
2023-05-01T08:36:35.610Z,16.60
2023-05-01T08:39:03.743Z,16.80
2023-05-01T08:41:34.236Z,16.90
2023-05-01T08:44:04.986Z,17.10
2023-05-01T08:46:41.583Z,17.10
2023-05-01T08:49:12.385Z,17.20
2023-05-01T08:51:40.861Z,17.20
2023-05-01T08:54:09.793Z,17.20
2023-05-01T08:56:38.602Z,17.40
2023-05-01T08:59:06.200Z,17.40
2023-05-01T09:01:34.754Z,17.40
2023-05-01T09:04:07.178Z,17.40
2023-05-01T09:06:35.188Z,17.40
2023-05-01T09:09:03.679Z,17.50
2023-05-01T09:11:32.023Z,17.50
2023-05-01T09:14:02.013Z,17.50
2023-05-01T09:16:30.962Z,17.60
2023-05-01T09:19:00.066Z,17.70
2023-05-01T09:21:32.783Z,17.70
2023-05-01T09:23:59.583Z,17.70
2023-05-01T09:26:30.089Z,17.80
2023-05-01T09:28:58.865Z,17.80
2023-05-01T09:31:32.518Z,17.80
2023-05-01T09:34:04.191Z,17.90
2023-05-01T09:36:32.737Z,17.90
2023-05-01T09:39:00.892Z,17.90
2023-05-01T09:41:28.547Z,18.00
2023-05-01T09:43:56.919Z,18.10
2023-05-01T09:46:25.345Z,18.10
2023-05-01T09:49:00.001Z,18.10
2023-05-01T09:51:31.741Z,18.10
2023-05-01T09:54:00.270Z,18.10
2023-05-01T09:56:28.082Z,18.00
2023-05-01T09:58:56.405Z,18.00
2023-05-01T10:01:43.598Z,17.90
2023-05-01T10:04:10.560Z,18.10
2023-05-01T10:06:38.194Z,18.30
2023-05-01T10:09:07.967Z,18.40
2023-05-01T10:11:56.046Z,18.60
2023-05-01T10:14:24.401Z,18.80
2023-05-01T10:16:53.118Z,19.00
2023-05-01T10:19:21.101Z,19.00
2023-05-01T10:21:47.995Z,18.90
2023-05-01T10:24:16.694Z,18.90
2023-05-01T10:26:44.005Z,18.80
2023-05-01T10:29:12.072Z,18.80
2023-05-01T10:31:40.683Z,19.00
2023-05-01T10:34:09.293Z,19.30
2023-05-01T10:36:51.592Z,19.30
2023-05-01T10:39:38.818Z,19.40
2023-05-01T10:42:14.808Z,19.50
2023-05-01T10:44:42.598Z,19.80
2023-05-01T10:47:25.223Z,20.00
2023-05-01T10:50:12.225Z,20.30
2023-05-01T10:53:09.748Z,20.50
2023-05-01T10:55:43.521Z,20.80
2023-05-01T10:58:14.668Z,20.80
2023-05-01T11:00:42.160Z,20.70
2023-05-01T11:03:24.491Z,20.60
2023-05-01T11:06:00.559Z,20.50
2023-05-01T11:08:39.019Z,20.60
2023-05-01T11:11:23.920Z,20.60
2023-05-01T11:14:00.835Z,20.70
2023-05-01T11:16:48.802Z,21.00
2023-05-01T11:19:21.941Z,21.20
2023-05-01T11:21:49.935Z,21.20
2023-05-01T11:24:18.734Z,21.20
2023-05-01T11:26:45.798Z,20.90
2023-05-01T11:29:12.587Z,21.00
2023-05-01T11:31:40.036Z,21.20
2023-05-01T11:34:07.194Z,21.30
2023-05-01T11:36:50.591Z,21.50
2023-05-01T11:39:18.219Z,21.50
2023-05-01T11:41:45.889Z,21.50
2023-05-01T11:44:15.661Z,21.60
2023-05-01T11:46:42.614Z,21.80
2023-05-01T11:49:12.040Z,21.70
2023-05-01T11:51:38.723Z,21.50
2023-05-01T11:54:11.283Z,21.60
2023-05-01T11:56:40.921Z,21.70
2023-05-01T11:59:19.019Z,21.60
2023-05-01T12:01:47.019Z,21.30
2023-05-01T12:04:23.057Z,21.40
2023-05-01T12:06:50.158Z,21.30
2023-05-01T12:09:25.301Z,21.30
2023-05-01T12:11:53.614Z,21.50
2023-05-01T12:14:21.677Z,21.60
2023-05-01T12:16:49.412Z,21.50
2023-05-01T12:19:17.465Z,21.50
2023-05-01T12:21:44.421Z,21.40
2023-05-01T12:24:16.930Z,21.40
2023-05-01T12:26:45.180Z,21.20
2023-05-01T12:29:12.222Z,21.30
2023-05-01T12:31:49.941Z,21.30
2023-05-01T12:34:16.812Z,21.30
2023-05-01T12:36:53.433Z,21.30
2023-05-01T12:39:20.511Z,21.40
2023-05-01T12:41:49.099Z,21.40
2023-05-01T12:44:24.738Z,21.40
2023-05-01T12:47:08.918Z,21.50
2023-05-01T12:49:37.211Z,21.60
2023-05-01T12:52:06.281Z,22.10
2023-05-01T12:54:38.647Z,22.20
2023-05-01T12:57:16.264Z,22.30
2023-05-01T12:59:44.805Z,22.80
2023-05-01T13:02:17.282Z,23.00
2023-05-01T13:04:45.018Z,22.80
2023-05-01T13:07:14.767Z,23.00
2023-05-01T13:09:56.300Z,22.80
2023-05-01T13:12:24.350Z,22.80
2023-05-01T13:14:51.468Z,22.90
2023-05-01T13:17:32.414Z,23.30
2023-05-01T13:20:04.331Z,23.40
2023-05-01T13:22:32.676Z,23.20
2023-05-01T13:25:00.001Z,22.80
2023-05-01T13:27:27.045Z,22.40
2023-05-01T13:29:58.183Z,22.30
2023-05-01T13:32:25.999Z,22.00
2023-05-01T13:34:54.291Z,22.10
2023-05-01T13:37:23.714Z,22.70
2023-05-01T13:39:58.496Z,22.80
2023-05-01T13:42:25.702Z,22.50
2023-05-01T13:44:56.670Z,22.30
2023-05-01T13:47:28.379Z,22.30
2023-05-01T13:49:56.241Z,22.10
2023-05-01T13:52:24.794Z,21.60
2023-05-01T13:54:56.276Z,21.40
2023-05-01T13:57:23.979Z,21.30
2023-05-01T13:59:51.762Z,21.20
2023-05-01T14:02:21.798Z,21.10
2023-05-01T14:04:49.867Z,20.50
2023-05-01T14:07:22.165Z,20.30
2023-05-01T14:10:00.276Z,19.90
2023-05-01T14:12:31.196Z,19.70
2023-05-01T14:15:00.266Z,19.30
2023-05-01T14:17:35.767Z,18.90
2023-05-01T14:20:07.307Z,18.40
2023-05-01T14:22:44.593Z,18.20
2023-05-01T14:25:20.590Z,17.70
2023-05-01T14:27:48.547Z,17.00
2023-05-01T14:30:42.750Z,16.10
2023-05-01T14:33:12.383Z,14.90
2023-05-01T14:35:53.088Z,14.40
2023-05-01T14:38:21.766Z,14.10
2023-05-01T14:40:49.167Z,13.90
2023-05-01T14:43:21.922Z,13.80
2023-05-01T14:45:51.898Z,13.60
2023-05-01T14:48:24.223Z,13.40
2023-05-01T14:50:53.127Z,14.60
2023-05-01T14:53:20.598Z,14.70
2023-05-01T14:55:51.651Z,14.50
2023-05-01T14:58:18.807Z,14.50
2023-05-01T15:00:46.596Z,14.80
2023-05-01T15:03:13.927Z,14.20
2023-05-01T15:05:41.991Z,14.50
2023-05-01T15:08:09.825Z,13.80
2023-05-01T15:10:38.760Z,14.60
2023-05-01T15:13:07.010Z,14.20
2023-05-01T15:15:34.237Z,14.10
2023-05-01T15:18:02.650Z,13.90
2023-05-01T15:20:30.694Z,14.30
2023-05-01T15:22:57.753Z,14.50
2023-05-01T15:25:24.792Z,14.50
2023-05-01T15:27:55.365Z,14.70
2023-05-01T15:30:22.708Z,14.10
2023-05-01T15:32:50.331Z,14.80
2023-05-01T15:35:18.434Z,14.70
2023-05-01T15:37:46.169Z,14.50
2023-05-01T15:40:14.078Z,14.50
2023-05-01T15:42:41.398Z,15.20
2023-05-01T15:45:11.125Z,14.80
2023-05-01T15:47:38.829Z,15.00
2023-05-01T15:50:10.804Z,15.00
2023-05-01T15:52:38.070Z,15.10
2023-05-01T15:55:05.670Z,15.30
2023-05-01T15:57:34.758Z,14.90
2023-05-01T16:00:01.978Z,15.50
2023-05-01T16:02:32.641Z,15.00
2023-05-01T16:05:00.148Z,15.50
2023-05-01T16:07:29.256Z,16.00
2023-05-01T16:09:57.453Z,15.70
2023-05-01T16:12:24.673Z,15.70
2023-05-01T16:14:51.498Z,16.00
2023-05-01T16:17:19.562Z,16.50
2023-05-01T16:19:47.110Z,16.70
2023-05-01T16:22:17.278Z,16.80
2023-05-01T16:24:44.511Z,16.60
2023-05-01T16:27:14.498Z,16.60
2023-05-01T16:29:41.374Z,16.90
2023-05-01T16:32:11.383Z,16.80
2023-05-01T16:34:40.155Z,16.70
2023-05-01T16:37:07.451Z,16.60
2023-05-01T16:39:39.587Z,16.50
2023-05-01T16:42:06.344Z,16.50
2023-05-01T16:44:36.515Z,16.50
2023-05-01T16:47:03.574Z,16.40
2023-05-01T16:49:30.802Z,16.40
2023-05-01T16:51:58.679Z,16.50
2023-05-01T16:54:32.039Z,16.60
2023-05-01T16:56:59.245Z,16.40
2023-05-01T16:59:27.921Z,16.30
2023-05-01T17:01:55.052Z,16.30
2023-05-01T17:04:22.328Z,16.40
2023-05-01T17:06:49.520Z,16.40
2023-05-01T17:09:16.327Z,16.50
2023-05-01T17:11:43.129Z,16.40
2023-05-01T17:14:11.434Z,16.40
2023-05-01T17:16:38.186Z,16.20
2023-05-01T17:19:08.905Z,16.30
2023-05-01T17:21:35.951Z,16.30
2023-05-01T17:24:02.738Z,16.40
2023-05-01T17:26:29.583Z,16.30
2023-05-01T17:28:56.322Z,16.30
2023-05-01T17:31:23.166Z,16.30
2023-05-01T17:33:49.967Z,16.50
2023-05-01T17:36:16.669Z,16.00
2023-05-01T17:38:43.469Z,16.10
2023-05-01T17:41:10.568Z,16.20
2023-05-01T17:43:37.319Z,16.20
2023-05-01T17:46:05.015Z,16.30
2023-05-01T17:48:31.969Z,15.90
2023-05-01T17:50:58.753Z,15.80
2023-05-01T17:53:25.628Z,16.00
2023-05-01T17:55:52.865Z,16.10
2023-05-01T17:58:20.681Z,16.10
2023-05-01T18:00:47.911Z,16.10
2023-05-01T18:03:14.859Z,15.90
2023-05-01T18:05:41.749Z,15.90
2023-05-01T18:08:08.633Z,15.90
2023-05-01T18:10:35.311Z,16.20
2023-05-01T18:13:02.387Z,15.90
2023-05-01T18:15:29.131Z,16.40
2023-05-01T18:17:56.594Z,16.00
2023-05-01T18:20:23.777Z,16.00
2023-05-01T18:22:50.953Z,16.00
2023-05-01T18:25:17.795Z,16.00
2023-05-01T18:27:45.391Z,16.10
2023-05-01T18:30:12.440Z,16.00
2023-05-01T18:32:46.812Z,15.90
2023-05-01T18:35:15.767Z,15.90
2023-05-01T18:37:43.829Z,15.80
2023-05-01T18:40:11.480Z,15.90
2023-05-01T18:42:40.042Z,15.80
2023-05-01T18:45:07.560Z,15.90
2023-05-01T18:47:34.282Z,15.80
2023-05-01T18:50:01.391Z,15.80
2023-05-01T18:52:29.199Z,16.00
2023-05-01T18:54:55.935Z,15.70
2023-05-01T18:57:23.030Z,15.60
2023-05-01T18:59:49.854Z,15.50
2023-05-01T19:02:16.555Z,15.50
2023-05-01T19:04:56.718Z,15.40
2023-05-01T19:07:25.953Z,15.60
2023-05-01T19:09:52.777Z,15.10
2023-05-01T19:12:19.577Z,15.30
2023-05-01T19:14:46.336Z,15.00
2023-05-01T19:17:13.143Z,14.90
2023-05-01T19:19:40.021Z,14.70
2023-05-01T19:22:07.287Z,14.60
2023-05-01T19:24:34.019Z,14.70
2023-05-01T19:27:01.659Z,14.60
2023-05-01T19:29:28.443Z,14.60
2023-05-01T19:31:55.265Z,14.50
2023-05-01T19:34:22.099Z,14.40
2023-05-01T19:36:48.825Z,14.30
2023-05-01T19:39:15.617Z,14.10
2023-05-01T19:41:42.422Z,14.20
2023-05-01T19:44:09.293Z,14.00
2023-05-01T19:46:36.340Z,14.00
2023-05-01T19:49:03.107Z,13.90
2023-05-01T19:51:29.783Z,13.90
2023-05-01T19:53:56.959Z,14.00
2023-05-01T19:56:24.627Z,13.90
2023-05-01T19:58:53.884Z,13.90
2023-05-01T20:01:20.766Z,13.90
2023-05-01T20:03:48.218Z,13.90
2023-05-01T20:06:15.154Z,13.90
2023-05-01T20:08:42.523Z,13.80
2023-05-01T20:11:09.307Z,13.80
2023-05-01T20:13:36.874Z,13.70
2023-05-01T20:16:03.975Z,13.60
2023-05-01T20:18:30.726Z,13.60
2023-05-01T20:20:57.955Z,13.70
2023-05-01T20:23:24.812Z,13.60
2023-05-01T20:25:55.082Z,13.70
2023-05-01T20:28:21.926Z,13.60
2023-05-01T20:30:49.310Z,13.60
2023-05-01T20:33:17.689Z,13.60
2023-05-01T20:35:45.229Z,13.60
2023-05-01T20:38:12.023Z,13.60
2023-05-01T20:40:42.401Z,13.60
2023-05-01T20:43:09.192Z,13.60
2023-05-01T20:45:36.086Z,13.60
2023-05-01T20:48:03.396Z,13.50
2023-05-01T20:50:30.217Z,13.50
2023-05-01T20:52:57.103Z,13.50
2023-05-01T20:55:24.103Z,13.50
2023-05-01T20:57:50.863Z,13.40
2023-05-01T21:00:17.671Z,13.40
2023-05-01T21:02:45.114Z,13.40
2023-05-01T21:05:12.935Z,13.30
2023-05-01T21:07:40.346Z,13.30
2023-05-01T21:10:11.124Z,13.20
2023-05-01T21:12:37.911Z,13.20
2023-05-01T21:15:05.290Z,13.20
2023-05-01T21:17:36.795Z,13.10
2023-05-01T21:20:10.702Z,13.20
2023-05-01T21:22:40.495Z,13.20
2023-05-01T21:25:08.417Z,13.20
2023-05-01T21:27:38.984Z,13.20
2023-05-01T21:30:06.977Z,13.20
2023-05-01T21:32:39.957Z,13.20
2023-05-01T21:35:07.830Z,13.20
2023-05-01T21:37:34.652Z,13.20
2023-05-01T21:40:02.285Z,13.20
2023-05-01T21:42:35.747Z,13.10
2023-05-01T21:45:14.233Z,13.10
2023-05-01T21:47:44.272Z,12.90
2023-05-01T21:50:16.277Z,12.90
2023-05-01T21:52:44.092Z,12.90
2023-05-01T21:55:16.074Z,12.90
2023-05-01T21:57:42.835Z,12.80
2023-05-01T22:00:10.224Z,12.80
2023-05-01T22:02:41.827Z,12.80
2023-05-01T22:05:09.582Z,12.80
2023-05-01T22:07:40.661Z,12.70
2023-05-01T22:10:13.457Z,12.60
2023-05-01T22:12:40.859Z,12.60
2023-05-01T22:15:08.793Z,12.50
2023-05-01T22:17:36.605Z,12.50
2023-05-01T22:20:05.774Z,12.60
2023-05-01T22:22:33.040Z,12.60
2023-05-01T22:24:59.850Z,12.60
2023-05-01T22:27:26.543Z,12.70
2023-05-01T22:29:53.403Z,12.70
2023-05-01T22:32:20.155Z,12.80
2023-05-01T22:34:46.936Z,12.70
2023-05-01T22:37:13.873Z,12.70
2023-05-01T22:39:40.577Z,12.70
2023-05-01T22:42:07.325Z,12.60
2023-05-01T22:44:34.088Z,12.60
2023-05-01T22:47:00.927Z,12.60
2023-05-01T22:49:28.724Z,12.60
2023-05-01T22:51:56.105Z,12.60
2023-05-01T22:54:23.303Z,12.60
2023-05-01T22:56:50.198Z,12.60
2023-05-01T22:59:17.890Z,12.60
2023-05-01T23:01:45.637Z,12.60
2023-05-01T23:04:13.013Z,12.60
2023-05-01T23:06:40.282Z,12.60
2023-05-01T23:09:07.304Z,12.50
2023-05-01T23:11:34.753Z,12.40
2023-05-01T23:14:01.759Z,12.40
2023-05-01T23:16:37.801Z,12.50
2023-05-01T23:19:05.513Z,12.50
2023-05-01T23:21:32.259Z,12.50
2023-05-01T23:24:01.725Z,12.50
2023-05-01T23:26:29.748Z,12.50
2023-05-01T23:28:56.795Z,12.50
2023-05-01T23:31:26.686Z,12.60
2023-05-01T23:33:56.002Z,12.60
2023-05-01T23:36:29.475Z,12.60
2023-05-01T23:38:56.739Z,12.60
2023-05-01T23:41:25.126Z,12.60
2023-05-01T23:43:53.308Z,12.60
2023-05-01T23:46:20.223Z,12.60
2023-05-01T23:48:47.359Z,12.60
2023-05-01T23:51:14.902Z,12.70
2023-05-01T23:53:42.527Z,12.70
2023-05-01T23:56:11.212Z,12.70
2023-05-01T23:58:37.885Z,12.70
